Hite, Kentucky
Current Conditions -  °F | °C
As of 12:55 PM on Wednesday 28 Jan 2015 (Local Time) from KPBX Reporting Station
Scattered Clouds Scattered Clouds  
Wind Chill: 28°   Ceiling: Unl
Heat Index: 28°   Visibility: 10mi
Dew Point: 19°   Wind: 3mph
Humidity: 70%   Direction: 40°NE
Pressure: 30.31"   Gusts: NA
Location:  37.5458°N, 82.7593°W
Report Text: KPBX 281755Z AUTO 04003KT 10SM SCT018 M02/M07 A3031 RMK AO2 T10241072 11023 21076
Loading
Personal Weather Stations






























Interactive Weather Map New forecast layout! Learn more

10-Day Weather Forecast

Advertisements
Track Severe Weather on mobile